createdAt,value
2023-05-06T00:00:43.141Z,101244.69
2023-05-06T00:02:45.406Z,101242.28
2023-05-06T00:04:48.001Z,101244.75
2023-05-06T00:06:50.478Z,101243.72
2023-05-06T00:08:52.864Z,101248.94
2023-05-06T00:10:55.277Z,101242.94
2023-05-06T00:12:57.588Z,101249.13
2023-05-06T00:14:59.733Z,101250.75
2023-05-06T00:17:02.273Z,101248.03
2023-05-06T00:19:04.525Z,101255.06
2023-05-06T00:21:07.119Z,101247.41
2023-05-06T00:23:09.238Z,101245.47
2023-05-06T00:25:11.687Z,101256.56
2023-05-06T00:27:13.949Z,101256.22
2023-05-06T00:29:16.275Z,101257.84
2023-05-06T00:31:18.498Z,101251.91
2023-05-06T00:33:20.721Z,101249.34
2023-05-06T00:35:22.812Z,101248.56
2023-05-06T00:37:25.042Z,101236.41
2023-05-06T00:39:27.322Z,101240.81
2023-05-06T00:41:33.504Z,101236.34
2023-05-06T00:43:35.756Z,101232.19
2023-05-06T00:45:38.409Z,101224.25
2023-05-06T00:47:40.810Z,101228.75
2023-05-06T00:49:43.209Z,101223.44
2023-05-06T00:51:45.668Z,101235.63
2023-05-06T00:53:47.927Z,101226.97
2023-05-06T00:55:51.616Z,101226.97
2023-05-06T00:57:54.481Z,101223.31
2023-05-06T00:59:56.627Z,101213.91
2023-05-06T01:01:59.448Z,101218.91
2023-05-06T01:04:01.804Z,101213.16
2023-05-06T01:06:12.352Z,101209.88
2023-05-06T01:08:24.021Z,101207.31
2023-05-06T01:10:27.684Z,101208.19
2023-05-06T01:12:37.832Z,101208.84
2023-05-06T01:14:44.560Z,101208.78
2023-05-06T01:16:51.033Z,101210.31
2023-05-06T01:18:55.181Z,101211.97
2023-05-06T01:20:57.562Z,101211.25
2023-05-06T01:23:01.448Z,101213.06
2023-05-06T01:25:03.563Z,101207.94
2023-05-06T01:27:06.491Z,101207.88
2023-05-06T01:29:08.923Z,101208.63
2023-05-06T01:31:16.929Z,101215.63
2023-05-06T01:33:30.624Z,101208.78
2023-05-06T01:35:39.300Z,101208.66
2023-05-06T01:37:47.692Z,101209.81
2023-05-06T01:39:50.380Z,101205.28
2023-05-06T01:41:53.906Z,101208.59
2023-05-06T01:44:00.662Z,101213.78
2023-05-06T01:46:03.735Z,101210.25
2023-05-06T01:48:06.994Z,101213.78
2023-05-06T01:50:10.061Z,101213.03
2023-05-06T01:52:11.988Z,101201.09
2023-05-06T01:54:14.337Z,101213.22
2023-05-06T01:56:16.722Z,101214.69
2023-05-06T01:58:18.722Z,101209.63
2023-05-06T02:00:21.032Z,101211.38
2023-05-06T02:02:24.539Z,101207.91
2023-05-06T02:04:26.540Z,101204.53
2023-05-06T02:06:28.459Z,101200.88
2023-05-06T02:08:30.669Z,101199.38
2023-05-06T02:10:32.674Z,101201.94
2023-05-06T02:12:34.907Z,101201.75
2023-05-06T02:14:36.937Z,101203.47
2023-05-06T02:16:38.944Z,101208.78
2023-05-06T02:18:41.730Z,101200.16
2023-05-06T02:20:43.740Z,101195.53
2023-05-06T02:22:45.981Z,101205.91
2023-05-06T02:24:48.059Z,101201.84
2023-05-06T02:26:50.079Z,101195.91
2023-05-06T02:28:52.014Z,101203.69
2023-05-06T02:30:57.290Z,101206.28
2023-05-06T02:32:59.264Z,101207.94
2023-05-06T02:35:01.328Z,101201.19
2023-05-06T02:37:03.643Z,101195.94
2023-05-06T02:39:05.896Z,101200.91
2023-05-06T02:41:07.903Z,101202.75
2023-05-06T02:43:09.954Z,101202.00
2023-05-06T02:45:13.234Z,101195.69
2023-05-06T02:47:15.623Z,101200.59
2023-05-06T02:49:17.848Z,101189.47
2023-05-06T02:51:19.856Z,101195.34
2023-05-06T02:53:22.162Z,101186.59
2023-05-06T02:55:24.297Z,101185.22
2023-05-06T02:57:26.562Z,101189.63
2023-05-06T02:59:28.638Z,101188.69
2023-05-06T03:01:30.669Z,101181.78
2023-05-06T03:03:33.774Z,101183.63
2023-05-06T03:05:35.992Z,101189.38
2023-05-06T03:07:38.728Z,101185.28
2023-05-06T03:09:40.856Z,101188.44
2023-05-06T03:11:42.900Z,101182.56
2023-05-06T03:13:44.895Z,101178.25
2023-05-06T03:15:52.432Z,101172.22
2023-05-06T03:17:54.492Z,101177.47
2023-05-06T03:19:56.847Z,101181.00
2023-05-06T03:21:58.868Z,101183.22
2023-05-06T03:24:01.172Z,101169.22
2023-05-06T03:26:03.167Z,101175.44
2023-05-06T03:28:05.654Z,101173.94
2023-05-06T03:30:08.752Z,101167.66
2023-05-06T03:32:10.687Z,101166.91
2023-05-06T03:34:12.710Z,101167.63
2023-05-06T03:36:14.843Z,101167.44
2023-05-06T03:38:17.132Z,101169.38
2023-05-06T03:40:19.114Z,101173.56
2023-05-06T03:42:21.199Z,101172.75
2023-05-06T03:44:23.187Z,101172.63
2023-05-06T03:46:25.191Z,101169.94
2023-05-06T03:48:27.180Z,101170.88
2023-05-06T03:50:29.153Z,101169.34
2023-05-06T03:52:31.225Z,101173.78
2023-05-06T03:54:33.601Z,101166.03
2023-05-06T03:56:36.256Z,101163.56
2023-05-06T03:58:38.255Z,101166.09
2023-05-06T04:00:40.289Z,101167.06
2023-05-06T04:02:42.853Z,101167.03
2023-05-06T04:04:44.941Z,101159.25
2023-05-06T04:06:47.259Z,101165.06
2023-05-06T04:08:49.314Z,101160.78
2023-05-06T04:10:51.310Z,101166.00
2023-05-06T04:12:53.389Z,101159.09
2023-05-06T04:14:55.659Z,101155.59
2023-05-06T04:16:57.695Z,101154.00
2023-05-06T04:18:59.631Z,101153.00
2023-05-06T04:21:01.619Z,101152.25
2023-05-06T04:23:03.660Z,101150.50
2023-05-06T04:25:06.932Z,101152.13
2023-05-06T04:27:08.851Z,101148.56
2023-05-06T04:29:10.895Z,101151.94
2023-05-06T04:31:14.845Z,101158.59
2023-05-06T04:33:16.920Z,101157.06
2023-05-06T04:35:19.174Z,101160.38
2023-05-06T04:37:21.343Z,101161.16
2023-05-06T04:39:23.384Z,101159.47
2023-05-06T04:41:26.311Z,101161.19
2023-05-06T04:43:28.357Z,101161.34
2023-05-06T04:45:30.463Z,101160.53
2023-05-06T04:47:32.599Z,101158.84
2023-05-06T04:49:35.194Z,101158.06
2023-05-06T04:51:37.169Z,101153.00
2023-05-06T04:53:39.230Z,101159.03
2023-05-06T04:55:41.405Z,101159.84
2023-05-06T04:57:43.494Z,101165.88
2023-05-06T04:59:45.454Z,101163.34
2023-05-06T05:01:47.439Z,101168.53
2023-05-06T05:03:49.727Z,101172.94
2023-05-06T05:05:52.191Z,101172.06
2023-05-06T05:07:54.247Z,101176.25
2023-05-06T05:09:56.291Z,101175.38
2023-05-06T05:11:58.249Z,101172.03
2023-05-06T05:14:02.146Z,101183.28
2023-05-06T05:16:05.008Z,101178.97
2023-05-06T05:18:07.002Z,101183.34
2023-05-06T05:20:09.625Z,101184.34
2023-05-06T05:22:11.976Z,101181.84
2023-05-06T05:24:13.926Z,101183.63
2023-05-06T05:26:15.934Z,101183.69
2023-05-06T05:28:17.817Z,101181.63
2023-05-06T05:30:19.855Z,101185.03
2023-05-06T05:32:22.001Z,101185.00
2023-05-06T05:34:24.293Z,101190.09
2023-05-06T05:36:28.393Z,101187.63
2023-05-06T05:38:30.428Z,101186.78
2023-05-06T05:40:32.429Z,101194.63
2023-05-06T05:42:34.455Z,101186.75
2023-05-06T05:44:36.651Z,101190.16
2023-05-06T05:46:38.846Z,101193.75
2023-05-06T05:48:40.881Z,101196.28
2023-05-06T05:50:42.788Z,101198.78
2023-05-06T05:52:44.719Z,101198.00
2023-05-06T05:54:46.705Z,101198.09
2023-05-06T05:56:48.898Z,101198.84
2023-05-06T05:58:51.017Z,101200.59
2023-05-06T06:00:53.109Z,101190.19
2023-05-06T06:02:55.573Z,101195.41
2023-05-06T06:04:57.744Z,101193.81
2023-05-06T06:07:01.968Z,101200.75
2023-05-06T06:09:04.534Z,101195.69
2023-05-06T06:11:06.935Z,101199.34
2023-05-06T06:13:08.946Z,101199.28
2023-05-06T06:15:11.948Z,101201.84
2023-05-06T06:17:15.577Z,101200.16
2023-05-06T06:19:18.058Z,101198.66
2023-05-06T06:21:20.109Z,101197.81
2023-05-06T06:23:22.485Z,101201.25
2023-05-06T06:25:24.477Z,101197.66
2023-05-06T06:27:26.563Z,101196.78
2023-05-06T06:29:28.800Z,101197.69
2023-05-06T06:31:30.849Z,101205.22
2023-05-06T06:33:32.852Z,101195.91
2023-05-06T06:35:35.017Z,101203.91
2023-05-06T06:37:37.020Z,101198.81
2023-05-06T06:39:39.072Z,101204.00
2023-05-06T06:41:41.066Z,101211.72
2023-05-06T06:43:43.193Z,101204.84
2023-05-06T06:45:47.961Z,101207.44
2023-05-06T06:47:50.331Z,101210.16
2023-05-06T06:49:52.617Z,101211.94
2023-05-06T06:51:56.875Z,101211.31
2023-05-06T06:53:59.015Z,101210.41
2023-05-06T06:56:01.351Z,101207.72
2023-05-06T06:58:03.468Z,101207.00
2023-05-06T07:00:06.256Z,101211.88
2023-05-06T07:02:08.420Z,101209.44
2023-05-06T07:04:10.400Z,101214.47
2023-05-06T07:06:12.702Z,101209.44
2023-05-06T07:08:15.219Z,101208.34
2023-05-06T07:10:17.186Z,101206.09
2023-05-06T07:12:19.186Z,101209.47
2023-05-06T07:14:21.245Z,101202.63
2023-05-06T07:16:23.341Z,101206.22
2023-05-06T07:18:25.482Z,101200.13
2023-05-06T07:20:27.603Z,101207.66
2023-05-06T07:22:29.822Z,101198.22
2023-05-06T07:24:31.811Z,101197.47
2023-05-06T07:26:36.756Z,101205.19
2023-05-06T07:28:38.802Z,101203.50
2023-05-06T07:30:40.877Z,101201.78
2023-05-06T07:32:43.643Z,101206.88
2023-05-06T07:34:45.739Z,101205.13
2023-05-06T07:36:47.804Z,101203.59
2023-05-06T07:38:50.076Z,101206.09
2023-05-06T07:40:52.187Z,101205.22
2023-05-06T07:42:54.415Z,101212.16
2023-05-06T07:44:56.514Z,101217.34
2023-05-06T07:46:58.715Z,101213.19
2023-05-06T07:49:01.082Z,101216.66
2023-05-06T07:51:04.014Z,101216.75
2023-05-06T07:53:06.321Z,101222.72
2023-05-06T07:55:10.283Z,101221.03
2023-05-06T07:57:12.609Z,101214.31
2023-05-06T07:59:14.908Z,101210.06
2023-05-06T08:01:16.910Z,101219.56
2023-05-06T08:03:19.461Z,101215.94
2023-05-06T08:05:21.681Z,101217.75
2023-05-06T08:07:23.857Z,101217.81
2023-05-06T08:09:25.965Z,101217.97
2023-05-06T08:11:27.940Z,101217.84
2023-05-06T08:13:30.839Z,101217.06
2023-05-06T08:15:32.935Z,101217.94
2023-05-06T08:17:35.027Z,101216.03
2023-05-06T08:19:37.221Z,101211.75
2023-05-06T08:21:39.321Z,101211.88
2023-05-06T08:23:41.660Z,101215.44
2023-05-06T08:25:43.695Z,101217.75
2023-05-06T08:27:46.072Z,101219.44
2023-05-06T08:29:48.147Z,101219.53
2023-05-06T08:31:50.228Z,101209.28
2023-05-06T08:33:54.400Z,101217.06
2023-05-06T08:35:58.712Z,101223.03
2023-05-06T08:38:01.229Z,101220.69
2023-05-06T08:40:05.423Z,101223.22
2023-05-06T08:42:11.920Z,101217.31
2023-05-06T08:44:18.675Z,101216.47
2023-05-06T08:46:21.002Z,101216.53
2023-05-06T08:48:23.140Z,101219.00
2023-05-06T08:50:26.092Z,101225.91
2023-05-06T08:52:28.906Z,101214.59
2023-05-06T08:54:34.823Z,101231.53
2023-05-06T08:56:38.703Z,101228.09
2023-05-06T08:58:46.199Z,101220.41
2023-05-06T09:00:48.765Z,101220.25
2023-05-06T09:02:50.894Z,101222.19
2023-05-06T09:04:54.409Z,101217.75
2023-05-06T09:06:59.286Z,101217.72
2023-05-06T09:09:01.461Z,101216.03
2023-05-06T09:11:03.648Z,101212.56
2023-05-06T09:13:05.714Z,101221.28
2023-05-06T09:15:09.652Z,101223.97
2023-05-06T09:17:24.276Z,101217.84
2023-05-06T09:19:27.725Z,101216.28
2023-05-06T09:21:34.954Z,101213.56
2023-05-06T09:23:38.508Z,101220.34
2023-05-06T09:25:41.176Z,101211.69
2023-05-06T09:27:43.279Z,101217.06
2023-05-06T09:30:01.936Z,101215.25
2023-05-06T09:32:09.166Z,101214.19
2023-05-06T09:34:12.147Z,101212.66
2023-05-06T09:36:14.566Z,101218.63
2023-05-06T09:38:16.684Z,101214.50
2023-05-06T09:40:18.925Z,101214.38
2023-05-06T09:42:25.667Z,101226.41
2023-05-06T09:44:28.085Z,101228.19
2023-05-06T09:46:30.615Z,101220.31
2023-05-06T09:48:32.966Z,101219.56
2023-05-06T09:50:36.372Z,101219.28
2023-05-06T09:52:38.676Z,101210.84
2023-05-06T09:54:41.990Z,101207.38
2023-05-06T09:56:46.749Z,101205.72
2023-05-06T09:58:50.372Z,101215.16
2023-05-06T10:00:53.802Z,101206.47
2023-05-06T10:02:57.323Z,101209.97
2023-05-06T10:05:01.133Z,101207.47
2023-05-06T10:07:04.177Z,101212.56
2023-05-06T10:09:08.157Z,101212.53
2023-05-06T10:11:11.061Z,101202.25
2023-05-06T10:13:14.318Z,101209.84
2023-05-06T10:15:17.069Z,101205.56
2023-05-06T10:17:19.608Z,101215.13
2023-05-06T10:19:26.126Z,101212.38
2023-05-06T10:21:32.673Z,101215.91
2023-05-06T10:23:40.667Z,101211.56
2023-05-06T10:25:43.999Z,101209.78
2023-05-06T10:27:47.099Z,101209.75
2023-05-06T10:29:49.597Z,101210.63
2023-05-06T10:31:55.914Z,101212.31
2023-05-06T10:34:01.301Z,101206.34
2023-05-06T10:36:10.149Z,101207.06
2023-05-06T10:38:18.492Z,101201.97
2023-05-06T10:40:21.437Z,101204.56
2023-05-06T10:42:28.613Z,101200.25
2023-05-06T10:44:37.062Z,101203.59
2023-05-06T10:46:45.682Z,101197.66
2023-05-06T10:48:54.181Z,101189.91
2023-05-06T10:51:02.496Z,101192.59
2023-05-06T10:53:04.526Z,101196.78
2023-05-06T10:55:27.980Z,101192.34
2023-05-06T10:57:41.459Z,101196.78
2023-05-06T10:59:47.532Z,101196.69
2023-05-06T11:01:56.189Z,101193.03
2023-05-06T11:03:58.800Z,101194.97
2023-05-06T11:06:01.315Z,101187.09
2023-05-06T11:08:10.667Z,101181.88
2023-05-06T11:10:12.873Z,101181.06
2023-05-06T11:12:21.136Z,101175.97
2023-05-06T11:14:27.823Z,101175.66
2023-05-06T11:16:42.549Z,101183.59
2023-05-06T11:18:45.025Z,101175.72
2023-05-06T11:20:47.143Z,101184.41
2023-05-06T11:22:49.948Z,101175.84
2023-05-06T11:24:52.250Z,101167.28
2023-05-06T11:26:55.048Z,101176.84
2023-05-06T11:29:02.397Z,101176.69
2023-05-06T11:31:05.263Z,101180.09
2023-05-06T11:33:08.854Z,101179.38
2023-05-06T11:35:12.242Z,101178.47
2023-05-06T11:37:26.007Z,101181.88
2023-05-06T11:39:31.028Z,101176.53
2023-05-06T11:41:33.152Z,101172.19
2023-05-06T11:43:35.456Z,101176.47
2023-05-06T11:45:44.315Z,101177.09
2023-05-06T11:47:46.409Z,101173.69
2023-05-06T11:49:52.427Z,101178.19
2023-05-06T11:51:57.265Z,101169.91
2023-05-06T11:54:05.266Z,101178.88
2023-05-06T11:56:07.841Z,101177.81
2023-05-06T11:58:14.874Z,101174.50
2023-05-06T12:00:18.885Z,101172.91
2023-05-06T12:02:21.249Z,101175.59
2023-05-06T12:04:23.416Z,101174.53
2023-05-06T12:06:31.795Z,101178.19
2023-05-06T12:08:36.207Z,101163.56
2023-05-06T12:10:39.945Z,101171.19
2023-05-06T12:12:42.249Z,101170.53
2023-05-06T12:14:45.852Z,101165.25
2023-05-06T12:16:48.263Z,101168.63
2023-05-06T12:18:53.797Z,101166.13
2023-05-06T12:20:56.972Z,101163.56
2023-05-06T12:23:05.468Z,101165.25
2023-05-06T12:25:14.165Z,101154.13
2023-05-06T12:27:31.242Z,101161.03
2023-05-06T12:29:33.255Z,101155.69
2023-05-06T12:31:35.499Z,101150.78
2023-05-06T12:33:43.876Z,101158.50
2023-05-06T12:35:46.098Z,101160.31
2023-05-06T12:37:48.415Z,101161.91
2023-05-06T12:39:50.485Z,101161.06
2023-05-06T12:41:54.043Z,101158.59
2023-05-06T12:43:56.477Z,101166.13
2023-05-06T12:46:05.396Z,101167.97
2023-05-06T12:48:08.496Z,101169.78
2023-05-06T12:50:11.018Z,101171.41
2023-05-06T12:52:13.798Z,101175.66
2023-05-06T12:54:22.227Z,101170.53
2023-05-06T12:56:24.416Z,101174.66
2023-05-06T12:58:26.714Z,101182.31
2023-05-06T13:00:29.027Z,101173.81
2023-05-06T13:02:31.195Z,101184.88
2023-05-06T13:04:33.384Z,101181.44
2023-05-06T13:06:35.614Z,101183.16
2023-05-06T13:08:37.917Z,101167.00
2023-05-06T13:10:40.175Z,101172.94
2023-05-06T13:12:42.550Z,101172.91
2023-05-06T13:14:44.627Z,101164.19
2023-05-06T13:16:47.117Z,101166.88
2023-05-06T13:18:49.908Z,101166.00
2023-05-06T13:20:52.111Z,101171.41
2023-05-06T13:22:55.326Z,101159.47
2023-05-06T13:24:57.838Z,101172.31
2023-05-06T13:27:01.609Z,101166.44
2023-05-06T13:29:04.471Z,101164.72
2023-05-06T13:31:06.776Z,101168.94
2023-05-06T13:33:09.166Z,101169.91
2023-05-06T13:35:11.684Z,101168.22
2023-05-06T13:37:14.135Z,101160.50
2023-05-06T13:39:16.453Z,101170.88
2023-05-06T13:41:19.959Z,101170.75
2023-05-06T13:43:26.497Z,101168.19
2023-05-06T13:45:29.196Z,101161.44
2023-05-06T13:47:31.810Z,101163.19
2023-05-06T13:49:34.976Z,101157.16
2023-05-06T13:51:37.546Z,101158.03
2023-05-06T13:53:39.681Z,101151.19
2023-05-06T13:55:43.147Z,101154.38
2023-05-06T13:57:45.388Z,101162.06
2023-05-06T13:59:47.804Z,101163.00
2023-05-06T14:01:50.314Z,101160.19
2023-05-06T14:03:53.615Z,101157.75
2023-05-06T14:05:56.584Z,101151.75
2023-05-06T14:07:58.966Z,101160.22
2023-05-06T14:10:01.266Z,101160.28
2023-05-06T14:12:03.622Z,101155.13
2023-05-06T14:14:06.694Z,101151.00
2023-05-06T14:16:09.046Z,101147.53
2023-05-06T14:18:11.327Z,101149.97
2023-05-06T14:20:14.337Z,101148.00
2023-05-06T14:22:16.871Z,101154.03
2023-05-06T14:24:19.322Z,101152.19
2023-05-06T14:26:21.693Z,101144.50
2023-05-06T14:28:24.111Z,101142.69
2023-05-06T14:30:26.599Z,101145.28
2023-05-06T14:32:28.948Z,101142.56
2023-05-06T14:34:31.179Z,101141.47
2023-05-06T14:36:33.304Z,101144.91
2023-05-06T14:38:35.325Z,101137.25
2023-05-06T14:40:38.969Z,101135.44
2023-05-06T14:42:41.142Z,101127.34
2023-05-06T14:44:45.474Z,101123.34
2023-05-06T14:46:48.259Z,101129.41
2023-05-06T14:48:50.895Z,101125.25
2023-05-06T14:50:53.374Z,101130.22
2023-05-06T14:52:55.861Z,101132.78
2023-05-06T14:54:58.128Z,101126.47
2023-05-06T14:57:03.236Z,101126.56
2023-05-06T14:59:05.739Z,101120.78
2023-05-06T15:01:08.253Z,101123.25
2023-05-06T15:03:10.482Z,101121.38
2023-05-06T15:05:13.986Z,101122.34
2023-05-06T15:07:16.917Z,101121.94
2023-05-06T15:09:19.382Z,101117.94
2023-05-06T15:11:21.702Z,101110.38
2023-05-06T15:13:23.839Z,101111.97
2023-05-06T15:15:26.010Z,101112.97
2023-05-06T15:17:28.927Z,101107.03
2023-05-06T15:19:31.080Z,101109.50
2023-05-06T15:21:33.306Z,101108.91
2023-05-06T15:23:35.498Z,101107.31
2023-05-06T15:25:38.606Z,101105.50
2023-05-06T15:27:41.119Z,101107.19
2023-05-06T15:29:43.790Z,101107.22
2023-05-06T15:31:46.473Z,101114.88
2023-05-06T15:33:48.637Z,101106.06
2023-05-06T15:35:50.912Z,101109.53
2023-05-06T15:37:58.957Z,101111.34
2023-05-06T15:40:01.430Z,101097.56
2023-05-06T15:42:04.123Z,101098.41
2023-05-06T15:44:06.653Z,101104.59
2023-05-06T15:46:09.291Z,101101.13
2023-05-06T15:48:11.668Z,101104.31
2023-05-06T15:50:25.354Z,101097.44
2023-05-06T15:52:35.664Z,101101.09
2023-05-06T15:54:38.184Z,101107.97
2023-05-06T15:56:41.610Z,101113.06
2023-05-06T15:58:44.527Z,101112.38
2023-05-06T16:00:46.820Z,101106.41
2023-05-06T16:02:49.565Z,101107.28
2023-05-06T16:04:52.088Z,101102.97
2023-05-06T16:06:54.315Z,101106.38
2023-05-06T16:08:56.902Z,101109.84
2023-05-06T16:10:59.680Z,101107.22
2023-05-06T16:13:01.833Z,101109.06
2023-05-06T16:15:04.497Z,101111.44
2023-05-06T16:17:06.703Z,101112.41
2023-05-06T16:19:10.494Z,101102.72
2023-05-06T16:21:13.231Z,101106.03
2023-05-06T16:23:16.451Z,101099.41
2023-05-06T16:25:18.582Z,101098.41
2023-05-06T16:27:21.058Z,101097.75
2023-05-06T16:29:23.284Z,101100.41
2023-05-06T16:31:25.529Z,101094.44
2023-05-06T16:33:28.072Z,101099.56
2023-05-06T16:35:30.624Z,101096.22
2023-05-06T16:37:32.819Z,101102.16
2023-05-06T16:39:35.307Z,101097.88
2023-05-06T16:41:37.310Z,101093.59
2023-05-06T16:43:39.535Z,101097.22
2023-05-06T16:45:45.787Z,101098.00
2023-05-06T16:47:48.433Z,101101.28
2023-05-06T16:49:51.047Z,101092.72
2023-05-06T16:51:53.331Z,101085.06
2023-05-06T16:53:55.481Z,101089.41
2023-05-06T16:55:57.873Z,101084.28
2023-05-06T16:58:02.230Z,101087.75
2023-05-06T17:00:08.281Z,101082.59
2023-05-06T17:02:10.666Z,101086.88
2023-05-06T17:04:13.470Z,101087.75
2023-05-06T17:06:15.794Z,101085.09
2023-05-06T17:08:18.802Z,101083.44
2023-05-06T17:10:22.354Z,101083.25
2023-05-06T17:12:24.567Z,101071.94
2023-05-06T17:14:26.938Z,101075.47
2023-05-06T17:16:29.222Z,101074.59
2023-05-06T17:18:31.396Z,101077.22
2023-05-06T17:20:40.716Z,101079.56
2023-05-06T17:22:50.429Z,101077.13
2023-05-06T17:24:52.689Z,101072.69
2023-05-06T17:26:54.762Z,101074.63
2023-05-06T17:28:57.062Z,101071.06
2023-05-06T17:30:59.680Z,101069.31
2023-05-06T17:33:01.931Z,101068.47
2023-05-06T17:35:04.483Z,101070.19
2023-05-06T17:37:07.252Z,101068.59
2023-05-06T17:39:09.725Z,101065.13
2023-05-06T17:41:12.354Z,101077.28
2023-05-06T17:43:14.612Z,101070.38
2023-05-06T17:45:17.455Z,101079.91
2023-05-06T17:47:22.978Z,101068.81
2023-05-06T17:49:25.545Z,101067.72
2023-05-06T17:51:27.852Z,101075.56
2023-05-06T17:53:30.178Z,101070.38
2023-05-06T17:55:32.458Z,101066.94
2023-05-06T17:57:34.874Z,101067.09
2023-05-06T17:59:37.412Z,101068.66
2023-05-06T18:01:39.614Z,101064.31
2023-05-06T18:03:41.943Z,101063.47
2023-05-06T18:05:44.440Z,101067.72
2023-05-06T18:07:47.139Z,101061.78
2023-05-06T18:09:52.251Z,101058.19
2023-05-06T18:11:54.475Z,101068.63
2023-05-06T18:13:56.635Z,101063.31
2023-05-06T18:15:58.785Z,101062.41
2023-05-06T18:18:01.076Z,101058.22
2023-05-06T18:20:03.860Z,101062.50
2023-05-06T18:22:05.998Z,101058.28
2023-05-06T18:24:16.088Z,101063.50
2023-05-06T18:26:39.480Z,101061.78
2023-05-06T18:28:41.562Z,101074.72
2023-05-06T18:30:43.752Z,101065.09
2023-05-06T18:32:45.954Z,101071.28
2023-05-06T18:34:48.032Z,101063.41
2023-05-06T18:36:50.290Z,101065.28
2023-05-06T18:38:52.355Z,101062.53
2023-05-06T18:40:54.584Z,101066.00
2023-05-06T18:42:56.919Z,101068.59
2023-05-06T18:44:59.638Z,101066.16
2023-05-06T18:47:02.330Z,101066.94
2023-05-06T18:49:04.685Z,101069.53
2023-05-06T18:51:11.959Z,101072.91
2023-05-06T18:53:14.152Z,101067.09
2023-05-06T18:55:16.236Z,101074.88
2023-05-06T18:57:19.910Z,101078.22
2023-05-06T18:59:22.256Z,101072.13
2023-05-06T19:01:25.326Z,101080.84
2023-05-06T19:03:27.926Z,101077.09
2023-05-06T19:05:30.321Z,101082.38
2023-05-06T19:07:32.587Z,101092.66
2023-05-06T19:09:37.549Z,101087.69
2023-05-06T19:11:39.737Z,101089.47
2023-05-06T19:13:44.672Z,101090.38
2023-05-06T19:15:46.795Z,101093.03
2023-05-06T19:17:48.931Z,101089.63
2023-05-06T19:19:51.501Z,101086.91
2023-05-06T19:21:54.105Z,101093.78
2023-05-06T19:24:00.017Z,101090.50
2023-05-06T19:26:02.739Z,101087.88
2023-05-06T19:28:06.594Z,101091.97
2023-05-06T19:30:09.950Z,101096.38
2023-05-06T19:32:12.348Z,101087.66
2023-05-06T19:34:14.414Z,101083.38
2023-05-06T19:36:17.010Z,101092.91
2023-05-06T19:38:19.963Z,101088.53
2023-05-06T19:40:23.047Z,101082.41
2023-05-06T19:42:25.176Z,101084.28
2023-05-06T19:44:27.388Z,101081.72
2023-05-06T19:46:29.503Z,101087.69
2023-05-06T19:48:32.993Z,101091.97
2023-05-06T19:50:36.908Z,101094.59
2023-05-06T19:52:38.949Z,101092.88
2023-05-06T19:54:41.873Z,101089.47
2023-05-06T19:56:44.037Z,101089.41
2023-05-06T19:58:46.237Z,101091.22
2023-05-06T20:00:48.453Z,101096.31
2023-05-06T20:02:50.803Z,101096.31
2023-05-06T20:04:53.103Z,101094.56
2023-05-06T20:06:55.257Z,101097.25
2023-05-06T20:08:57.325Z,101103.34
2023-05-06T20:10:59.480Z,101100.72
2023-05-06T20:13:02.498Z,101096.38
2023-05-06T20:15:05.310Z,101100.59
2023-05-06T20:17:07.551Z,101105.81
2023-05-06T20:19:09.822Z,101093.63
2023-05-06T20:21:11.857Z,101091.03
2023-05-06T20:23:14.033Z,101102.38
2023-05-06T20:25:17.731Z,101103.97
2023-05-06T20:27:21.568Z,101105.03
2023-05-06T20:29:23.705Z,101101.56
2023-05-06T20:31:25.880Z,101104.16
2023-05-06T20:33:28.016Z,101109.25
2023-05-06T20:35:30.296Z,101111.06
2023-05-06T20:37:34.009Z,101112.72
2023-05-06T20:39:36.687Z,101120.47
2023-05-06T20:41:39.080Z,101118.84
2023-05-06T20:43:41.409Z,101117.09
2023-05-06T20:45:43.499Z,101123.84
2023-05-06T20:47:45.836Z,101121.34
2023-05-06T20:49:47.907Z,101128.38
2023-05-06T20:51:50.039Z,101133.53
2023-05-06T20:53:52.469Z,101143.78
2023-05-06T20:55:54.821Z,101134.19
2023-05-06T20:57:56.893Z,101140.44
2023-05-06T20:59:58.904Z,101134.41
2023-05-06T21:02:01.435Z,101134.38
2023-05-06T21:04:04.917Z,101133.56
2023-05-06T21:06:07.174Z,101134.28
2023-05-06T21:08:09.146Z,101144.78
2023-05-06T21:10:11.400Z,101149.94
2023-05-06T21:12:13.420Z,101139.50
2023-05-06T21:14:15.473Z,101149.06
2023-05-06T21:16:17.580Z,101153.31
2023-05-06T21:18:20.020Z,101153.47
2023-05-06T21:20:22.297Z,101154.34
2023-05-06T21:22:24.761Z,101157.59
2023-05-06T21:24:26.917Z,101156.78
2023-05-06T21:26:30.972Z,101155.09
2023-05-06T21:28:32.956Z,101150.81
2023-05-06T21:30:36.034Z,101151.66
2023-05-06T21:32:38.495Z,101152.44
2023-05-06T21:34:40.557Z,101149.00
2023-05-06T21:36:42.569Z,101155.88
2023-05-06T21:38:45.092Z,101144.63
2023-05-06T21:40:47.118Z,101157.69
2023-05-06T21:42:50.565Z,101142.19
2023-05-06T21:44:52.515Z,101140.34
2023-05-06T21:46:54.659Z,101149.81
2023-05-06T21:48:57.209Z,101152.63
2023-05-06T21:51:03.671Z,101145.66
2023-05-06T21:53:05.786Z,101151.56
2023-05-06T21:55:08.644Z,101147.25
2023-05-06T21:57:12.674Z,101149.63
2023-05-06T21:59:14.721Z,101154.81
2023-05-06T22:01:17.052Z,101143.81
2023-05-06T22:03:19.265Z,101154.03
2023-05-06T22:05:21.775Z,101160.09
2023-05-06T22:07:23.905Z,101158.47
2023-05-06T22:09:26.130Z,101156.72
2023-05-06T22:11:28.109Z,101165.34
2023-05-06T22:13:30.204Z,101162.91
2023-05-06T22:15:32.460Z,101159.47
2023-05-06T22:17:34.883Z,101155.13
2023-05-06T22:19:36.949Z,101168.94
2023-05-06T22:21:39.528Z,101168.97
2023-05-06T22:23:41.600Z,101170.66
2023-05-06T22:25:43.599Z,101168.06
2023-05-06T22:27:45.652Z,101174.13
2023-05-06T22:29:47.596Z,101174.13
2023-05-06T22:31:49.841Z,101175.03
2023-05-06T22:33:55.679Z,101181.81
2023-05-06T22:35:57.960Z,101180.22
2023-05-06T22:38:00.055Z,101181.06
2023-05-06T22:40:02.335Z,101180.94
2023-05-06T22:42:04.264Z,101177.59
2023-05-06T22:44:06.540Z,101177.28
2023-05-06T22:46:08.668Z,101174.88
2023-05-06T22:48:11.399Z,101177.44
2023-05-06T22:50:13.488Z,101180.94
2023-05-06T22:52:15.564Z,101174.84
2023-05-06T22:54:17.608Z,101178.34
2023-05-06T22:56:20.259Z,101179.72
2023-05-06T22:58:22.241Z,101180.66
2023-05-06T23:00:24.487Z,101183.41
2023-05-06T23:02:26.703Z,101180.78
2023-05-06T23:04:28.716Z,101187.75
2023-05-06T23:06:31.900Z,101198.06
2023-05-06T23:08:33.924Z,101184.16
2023-05-06T23:10:36.619Z,101181.66
2023-05-06T23:12:38.697Z,101192.69
2023-05-06T23:14:40.859Z,101191.19
2023-05-06T23:16:43.082Z,101196.22
2023-05-06T23:18:46.367Z,101196.97
2023-05-06T23:20:48.355Z,101194.50
2023-05-06T23:22:50.541Z,101194.59
2023-05-06T23:24:52.564Z,101198.09